createdAt,value
2023-07-12T00:00:21.141Z,3.65
2023-07-12T00:03:10.522Z,3.58
2023-07-12T00:05:57.438Z,3.30
2023-07-12T00:08:44.171Z,4.20
2023-07-12T00:11:30.867Z,3.47
2023-07-12T00:17:03.659Z,3.63
2023-07-12T00:22:35.771Z,3.50
2023-07-12T00:25:24.874Z,3.50
2023-07-12T00:28:29.244Z,3.70
2023-07-12T00:31:15.318Z,4.13
2023-07-12T00:34:01.901Z,3.70
2023-07-12T00:36:48.290Z,4.28
2023-07-12T00:42:35.233Z,3.60
2023-07-12T00:45:21.581Z,3.50
2023-07-12T00:50:58.049Z,3.38
2023-07-12T00:53:44.146Z,3.55
2023-07-12T00:56:30.134Z,3.70
2023-07-12T00:59:22.515Z,3.50
2023-07-12T01:02:09.712Z,3.53
2023-07-12T01:05:00.610Z,4.10
2023-07-12T01:07:46.941Z,3.95
2023-07-12T01:13:23.029Z,4.68
2023-07-12T01:16:10.422Z,3.67
2023-07-12T01:18:56.937Z,3.63
2023-07-12T01:21:46.023Z,3.90
2023-07-12T01:24:33.165Z,3.90
2023-07-12T01:27:27.155Z,3.50
2023-07-12T01:30:19.916Z,3.10
2023-07-12T01:33:06.657Z,3.72
2023-07-12T01:35:52.978Z,3.30
2023-07-12T01:38:39.107Z,3.60
2023-07-12T01:41:25.906Z,4.43
2023-07-12T01:44:11.847Z,3.40
2023-07-12T01:49:45.640Z,3.35
2023-07-12T01:52:33.276Z,3.63
2023-07-12T01:58:07.114Z,3.25
2023-07-12T02:00:54.944Z,3.47
2023-07-12T02:03:41.350Z,3.50
2023-07-12T02:06:27.774Z,3.78
2023-07-12T02:09:13.813Z,3.60
2023-07-12T02:12:01.217Z,3.40
2023-07-12T02:14:53.337Z,3.17
2023-07-12T02:20:25.994Z,2.80
2023-07-12T02:23:12.322Z,3.58
2023-07-12T02:28:44.888Z,3.33
2023-07-12T02:31:32.746Z,3.25
2023-07-12T02:34:19.025Z,3.08
2023-07-12T02:39:51.882Z,3.50
2023-07-12T02:42:38.845Z,3.25
2023-07-12T02:45:25.816Z,3.50
2023-07-12T02:50:58.051Z,3.25
2023-07-12T02:53:44.613Z,2.83
2023-07-12T02:56:30.555Z,3.25
2023-07-12T03:02:04.299Z,3.38
2023-07-12T03:04:52.102Z,3.08
2023-07-12T03:07:39.776Z,3.25
2023-07-12T03:10:26.021Z,3.45
2023-07-12T03:13:11.949Z,3.63
2023-07-12T03:18:45.551Z,3.17
2023-07-12T03:21:31.807Z,3.17
2023-07-12T03:24:18.483Z,3.90
2023-07-12T03:27:05.221Z,3.30
2023-07-12T03:29:51.293Z,3.50
2023-07-12T03:32:37.426Z,3.63
2023-07-12T03:35:24.462Z,3.65
2023-07-12T03:38:10.840Z,4.00
2023-07-12T03:40:58.782Z,3.50
2023-07-12T03:43:44.808Z,3.70
2023-07-12T03:46:30.821Z,3.95
2023-07-12T03:49:17.034Z,3.40
2023-07-12T03:52:03.763Z,4.32
2023-07-12T03:54:50.019Z,4.25
2023-07-12T03:57:42.463Z,3.67
2023-07-12T04:00:28.692Z,4.03
2023-07-12T04:03:15.690Z,5.07
2023-07-12T04:06:04.245Z,3.33
2023-07-12T04:08:50.540Z,4.38
2023-07-12T04:11:38.409Z,3.80
2023-07-12T04:14:24.277Z,4.03
2023-07-12T04:17:10.825Z,4.32
2023-07-12T04:19:57.413Z,4.22
2023-07-12T04:22:43.411Z,4.40
2023-07-12T04:28:15.727Z,3.80
2023-07-12T04:33:52.403Z,3.63
2023-07-12T04:36:38.732Z,4.07
2023-07-12T04:39:24.562Z,3.95
2023-07-12T04:42:10.494Z,4.20
2023-07-12T04:44:56.437Z,4.18
2023-07-12T04:47:42.976Z,4.47
2023-07-12T04:50:30.452Z,5.10
2023-07-12T04:53:16.626Z,5.38
2023-07-12T04:56:02.648Z,3.95
2023-07-12T04:58:49.008Z,4.43
2023-07-12T05:01:35.453Z,4.60
2023-07-12T05:04:21.577Z,4.20
2023-07-12T05:07:10.778Z,4.03
2023-07-12T05:09:56.920Z,4.43
2023-07-12T05:12:43.179Z,4.20
2023-07-12T05:15:29.358Z,4.53
2023-07-12T05:18:15.401Z,4.72
2023-07-12T05:21:01.844Z,5.65
2023-07-12T05:23:47.808Z,5.07
2023-07-12T05:26:34.656Z,4.47
2023-07-12T05:29:20.687Z,4.60
2023-07-12T05:32:07.860Z,5.00
2023-07-12T05:34:53.813Z,5.30
2023-07-12T05:37:39.751Z,4.50
2023-07-12T05:40:26.024Z,4.30
2023-07-12T05:46:00.540Z,3.80
2023-07-12T05:48:46.699Z,4.05
2023-07-12T05:51:32.566Z,3.90
2023-07-12T05:54:18.916Z,3.70
2023-07-12T05:59:52.441Z,3.65
2023-07-12T06:02:40.056Z,3.92
2023-07-12T06:05:27.190Z,3.80
2023-07-12T06:08:13.280Z,3.42
2023-07-12T06:10:59.210Z,4.18
2023-07-12T06:16:31.629Z,3.78
2023-07-12T06:22:04.188Z,3.75
2023-07-12T06:24:50.262Z,4.63
2023-07-12T06:27:36.255Z,3.90
2023-07-12T06:30:22.668Z,3.78
2023-07-12T06:33:08.889Z,4.32
2023-07-12T06:35:55.347Z,4.25
2023-07-12T06:38:41.357Z,4.22
2023-07-12T06:41:27.276Z,4.25
2023-07-12T06:44:13.286Z,3.75
2023-07-12T06:46:59.362Z,3.50
2023-07-12T06:49:45.528Z,3.65
2023-07-12T06:52:31.704Z,3.40
2023-07-12T06:55:17.763Z,4.45
2023-07-12T06:58:03.697Z,3.58
2023-07-12T07:00:49.687Z,4.10
2023-07-12T07:03:35.787Z,4.00
2023-07-12T07:06:22.983Z,3.78
2023-07-12T07:09:09.668Z,3.55
2023-07-12T07:11:55.954Z,3.90
2023-07-12T07:14:42.437Z,3.25
2023-07-12T07:20:14.762Z,2.88
2023-07-12T07:23:01.279Z,2.63
2023-07-12T07:25:48.046Z,2.63
2023-07-12T07:28:34.263Z,2.67
2023-07-12T07:31:20.334Z,2.92
2023-07-12T07:36:52.824Z,2.85
2023-07-12T07:42:25.165Z,2.90
2023-07-12T07:45:12.287Z,2.58
2023-07-12T07:47:58.551Z,2.97
2023-07-12T07:53:30.959Z,2.60
2023-07-12T07:56:16.769Z,2.47
2023-07-12T07:59:02.742Z,2.85
2023-07-12T08:01:48.778Z,2.60
2023-07-12T08:04:34.663Z,2.28
2023-07-12T08:07:21.191Z,2.63
2023-07-12T08:10:08.862Z,2.40
2023-07-12T08:12:56.316Z,2.45
2023-07-12T08:15:43.407Z,3.17
2023-07-12T08:18:29.604Z,2.65
2023-07-12T08:21:15.932Z,2.67
2023-07-12T08:24:01.976Z,2.45
2023-07-12T08:26:58.165Z,2.40
2023-07-12T08:29:52.482Z,2.60
2023-07-12T08:32:38.439Z,2.75
2023-07-12T08:35:34.091Z,2.33
2023-07-12T08:38:24.255Z,2.20
2023-07-12T08:44:02.056Z,2.42
2023-07-12T08:46:54.726Z,2.63
2023-07-12T08:49:40.556Z,2.80
2023-07-12T08:52:34.070Z,2.70
2023-07-12T08:55:21.772Z,3.08
2023-07-12T08:58:23.022Z,2.50
2023-07-12T09:01:20.281Z,2.60
2023-07-12T09:04:28.851Z,2.47
2023-07-12T09:07:25.669Z,2.58
2023-07-12T09:10:11.920Z,2.55
2023-07-12T09:13:00.123Z,2.60
2023-07-12T09:15:50.818Z,2.85
2023-07-12T09:18:38.802Z,2.70
2023-07-12T09:21:33.575Z,2.83
2023-07-12T09:24:27.471Z,2.40
2023-07-12T09:27:25.741Z,2.80
2023-07-12T09:30:11.853Z,3.05
2023-07-12T09:32:59.183Z,2.60
2023-07-12T09:35:47.195Z,2.80
2023-07-12T09:38:37.699Z,3.10
2023-07-12T09:41:29.650Z,2.80
2023-07-12T09:44:16.313Z,3.03
2023-07-12T09:47:23.410Z,2.90
2023-07-12T09:50:20.787Z,2.80
2023-07-12T09:53:07.065Z,2.75
2023-07-12T09:56:17.651Z,2.67
2023-07-12T09:59:20.483Z,2.70
2023-07-12T10:02:28.465Z,2.70
2023-07-12T10:05:21.224Z,2.83
2023-07-12T10:08:14.947Z,3.05
2023-07-12T10:12:15.432Z,2.53
2023-07-12T10:15:01.897Z,2.65
2023-07-12T10:17:48.308Z,2.90
2023-07-12T10:20:35.305Z,3.03
2023-07-12T10:23:25.760Z,3.55
2023-07-12T10:26:15.358Z,2.95
2023-07-12T10:29:26.182Z,2.88
2023-07-12T10:32:27.063Z,3.10
2023-07-12T10:35:43.804Z,2.65
2023-07-12T10:38:30.063Z,3.00
2023-07-12T10:41:25.817Z,3.00
2023-07-12T10:44:19.743Z,2.65
2023-07-12T10:47:11.262Z,3.08
2023-07-12T10:50:03.772Z,2.97
2023-07-12T10:53:33.595Z,2.80
2023-07-12T10:56:39.128Z,3.30
2023-07-12T10:59:34.130Z,3.10
2023-07-12T11:02:29.941Z,3.42
2023-07-12T11:05:46.340Z,3.13
2023-07-12T11:08:32.540Z,2.97
2023-07-12T11:14:25.533Z,3.80
2023-07-12T11:17:27.199Z,3.10
2023-07-12T11:20:26.539Z,3.50
2023-07-12T11:23:54.097Z,3.20
2023-07-12T11:26:53.513Z,3.50
2023-07-12T11:29:48.110Z,3.53
2023-07-12T11:32:38.779Z,3.40
2023-07-12T11:35:48.411Z,3.53
2023-07-12T11:38:36.514Z,4.30
2023-07-12T11:41:25.001Z,3.97
2023-07-12T11:44:16.465Z,3.65
2023-07-12T11:47:03.446Z,4.03
2023-07-12T11:49:56.896Z,4.10
2023-07-12T11:52:43.296Z,3.97
2023-07-12T11:55:31.370Z,4.05
2023-07-12T11:58:22.518Z,4.20
2023-07-12T12:01:16.266Z,4.35
2023-07-12T12:04:06.720Z,4.10
2023-07-12T12:07:00.835Z,5.25
2023-07-12T12:09:48.953Z,4.80
2023-07-12T12:12:35.362Z,4.53
2023-07-12T12:15:23.655Z,4.53
2023-07-12T12:18:18.502Z,4.53
2023-07-12T12:21:15.113Z,4.55
2023-07-12T12:24:15.952Z,4.72
2023-07-12T12:27:15.339Z,4.72
2023-07-12T12:30:23.427Z,4.65
2023-07-12T12:33:27.118Z,5.00
2023-07-12T12:36:24.424Z,5.05
2023-07-12T12:39:10.354Z,5.07
2023-07-12T12:42:03.623Z,4.45
2023-07-12T12:44:52.420Z,5.03
2023-07-12T12:47:39.152Z,5.03
2023-07-12T13:02:43.037Z,5.25
2023-07-12T13:05:00.997Z,4.80
2023-07-12T13:19:33.122Z,5.38
2023-07-12T13:22:22.610Z,4.93
2023-07-12T13:25:09.883Z,5.10
2023-07-12T13:27:56.900Z,4.95
2023-07-12T13:30:43.275Z,5.78
2023-07-12T13:33:29.368Z,5.90
2023-07-12T13:36:37.000Z,3.47
2023-07-12T13:42:42.650Z,3.63
2023-07-12T13:45:23.796Z,3.00
2023-07-12T13:48:16.199Z,3.00
2023-07-12T13:51:05.757Z,2.47
2023-07-12T13:53:53.026Z,2.70
2023-07-12T13:59:28.916Z,3.13
2023-07-12T14:10:51.382Z,2.70
2023-07-12T14:13:37.580Z,3.00
2023-07-12T14:16:25.480Z,3.00
2023-07-12T14:19:11.803Z,3.30
2023-07-12T14:21:58.214Z,3.38
2023-07-12T14:24:45.129Z,3.10
2023-07-12T14:27:36.484Z,2.80
2023-07-12T14:30:47.805Z,3.03
2023-07-12T14:33:36.285Z,3.67
2023-07-12T14:36:27.473Z,3.22
2023-07-12T14:39:14.559Z,2.83
2023-07-12T14:42:00.755Z,2.70
2023-07-12T14:44:47.142Z,2.30
2023-07-12T14:47:33.153Z,2.58
2023-07-12T14:50:21.588Z,2.72
2023-07-12T14:53:13.038Z,2.50
2023-07-12T14:55:59.201Z,2.65
2023-07-12T14:58:45.436Z,2.20
2023-07-12T15:01:32.487Z,2.20
2023-07-12T15:04:18.817Z,2.20
2023-07-12T15:09:53.706Z,2.47
2023-07-12T15:13:03.506Z,2.58
2023-07-12T15:15:50.232Z,2.95
2023-07-12T15:18:36.490Z,2.55
2023-07-12T15:21:32.194Z,2.90
2023-07-12T15:24:18.163Z,2.90
2023-07-12T15:27:04.645Z,2.97
2023-07-12T15:29:53.194Z,3.25
2023-07-12T15:32:39.711Z,2.70
2023-07-12T15:35:30.075Z,2.95
2023-07-12T15:38:17.682Z,2.80
2023-07-12T15:41:06.734Z,3.28
2023-07-12T15:43:55.861Z,3.20
2023-07-12T15:46:42.712Z,2.80
2023-07-12T15:49:33.009Z,3.00
2023-07-12T15:52:27.252Z,3.35
2023-07-12T15:55:16.229Z,3.10
2023-07-12T15:58:02.831Z,3.17
2023-07-12T16:00:51.061Z,3.10
2023-07-12T16:03:38.568Z,3.10
2023-07-12T16:06:25.834Z,3.08
2023-07-12T16:09:12.739Z,3.42
2023-07-12T16:11:58.713Z,3.47
2023-07-12T16:14:45.204Z,3.65
2023-07-12T16:20:17.559Z,3.30
2023-07-12T16:23:05.414Z,3.33
2023-07-12T16:25:51.860Z,3.60
2023-07-12T16:31:42.154Z,4.13
2023-07-12T16:34:28.702Z,4.20
2023-07-12T16:37:18.685Z,3.92
2023-07-12T16:40:09.645Z,3.90
2023-07-12T16:42:57.681Z,3.92
2023-07-12T16:45:43.919Z,4.05
2023-07-12T16:48:30.630Z,4.22
2023-07-12T16:51:24.587Z,4.50
2023-07-12T16:54:10.821Z,4.47
2023-07-12T16:56:57.467Z,4.75
2023-07-12T16:59:43.300Z,4.10
2023-07-12T17:02:30.440Z,4.53
2023-07-12T17:05:19.873Z,4.57
2023-07-12T17:08:09.781Z,3.63
2023-07-12T17:10:58.174Z,4.00
2023-07-12T17:13:46.039Z,4.00
2023-07-12T17:16:32.291Z,3.90
2023-07-12T17:19:19.088Z,3.97
2023-07-12T17:24:51.124Z,4.13
2023-07-12T17:27:37.059Z,4.30
2023-07-12T17:30:22.996Z,4.22
2023-07-12T17:35:56.933Z,4.88
2023-07-12T17:41:30.662Z,4.68
2023-07-12T17:44:19.233Z,4.13
2023-07-12T17:47:14.050Z,4.30
2023-07-12T17:50:00.240Z,3.88
2023-07-12T17:52:46.990Z,3.38
2023-07-12T17:55:33.430Z,3.80
2023-07-12T17:58:20.526Z,3.95
2023-07-12T18:01:24.606Z,3.65
2023-07-12T18:04:13.872Z,3.67
2023-07-12T18:07:00.124Z,4.90
2023-07-12T18:09:46.673Z,3.85
2023-07-12T18:12:32.832Z,3.88
2023-07-12T18:15:25.750Z,4.13
2023-07-12T18:18:12.428Z,3.55
2023-07-12T18:20:58.410Z,3.58
2023-07-12T18:23:44.713Z,3.55
2023-07-12T18:26:30.777Z,3.95
2023-07-12T18:32:03.334Z,3.90
2023-07-12T18:34:52.637Z,4.00
2023-07-12T18:37:39.176Z,3.95
2023-07-12T18:40:27.465Z,4.15
2023-07-12T18:43:25.617Z,3.92
2023-07-12T18:46:12.788Z,4.15
2023-07-12T18:48:59.195Z,4.35
2023-07-12T18:51:45.760Z,3.45
2023-07-12T18:54:31.788Z,3.50
2023-07-12T18:57:20.000Z,3.72
2023-07-12T19:00:08.998Z,3.40
2023-07-12T19:02:55.582Z,3.20
2023-07-12T19:05:42.028Z,3.67
2023-07-12T19:08:28.439Z,3.63
2023-07-12T19:11:39.091Z,3.20
2023-07-12T19:14:27.424Z,3.20
2023-07-12T19:17:18.571Z,3.40
2023-07-12T19:20:07.225Z,3.35
2023-07-12T19:22:53.094Z,3.35
2023-07-12T19:25:39.775Z,3.05
2023-07-12T19:28:26.096Z,3.25
2023-07-12T19:31:27.268Z,3.67
2023-07-12T19:34:22.638Z,4.30
2023-07-12T19:37:11.610Z,4.00
2023-07-12T19:39:58.039Z,4.35
2023-07-12T19:42:44.890Z,4.65
2023-07-12T19:45:31.402Z,4.40
2023-07-12T19:48:17.922Z,4.90
2023-07-12T19:51:04.753Z,5.05
2023-07-12T19:53:53.594Z,4.85
2023-07-12T19:56:40.003Z,4.80
2023-07-12T20:02:17.803Z,5.57
2023-07-12T20:05:05.595Z,4.95
2023-07-12T20:07:51.554Z,4.63
2023-07-12T20:10:37.557Z,6.80
2023-07-12T20:13:23.566Z,5.72
2023-07-12T20:16:10.823Z,4.97
2023-07-12T20:18:57.784Z,5.25
2023-07-12T20:21:43.899Z,4.40
2023-07-12T20:24:29.978Z,5.07
2023-07-12T20:27:16.664Z,5.60
2023-07-12T20:32:52.514Z,3.80
2023-07-12T20:35:38.792Z,4.43
2023-07-12T20:41:11.436Z,4.50
2023-07-12T20:46:44.590Z,4.28
2023-07-12T20:49:32.365Z,4.20
2023-07-12T20:52:18.439Z,4.70
2023-07-12T20:55:04.882Z,4.22
2023-07-12T21:00:49.989Z,4.60
2023-07-12T21:03:36.520Z,4.22
2023-07-12T21:06:25.463Z,3.88
2023-07-12T21:09:14.860Z,4.13
2023-07-12T21:12:01.099Z,3.67
2023-07-12T21:14:47.149Z,4.45
2023-07-12T21:17:34.874Z,4.03
2023-07-12T21:20:21.016Z,4.43
2023-07-12T21:23:08.103Z,5.00
2023-07-12T21:25:54.598Z,4.50
2023-07-12T21:31:27.712Z,4.50
2023-07-12T21:34:14.595Z,5.32
2023-07-12T21:37:00.897Z,5.43
2023-07-12T21:42:33.356Z,5.63
2023-07-12T21:45:19.339Z,5.28
2023-07-12T21:48:07.555Z,5.20
2023-07-12T21:50:55.411Z,5.00
2023-07-12T21:53:41.616Z,5.03
2023-07-12T21:56:27.640Z,5.05
2023-07-12T21:59:13.694Z,5.25
2023-07-12T22:01:59.892Z,5.47
2023-07-12T22:04:46.777Z,6.07
2023-07-12T22:10:19.029Z,5.50
2023-07-12T22:15:51.693Z,5.13
2023-07-12T22:21:36.620Z,5.45
2023-07-12T22:24:23.830Z,5.05
2023-07-12T22:27:10.072Z,5.22
2023-07-12T22:29:57.273Z,4.97
2023-07-12T22:32:44.672Z,4.50
2023-07-12T22:35:31.730Z,5.00
2023-07-12T22:38:18.660Z,4.57
2023-07-12T22:41:05.653Z,4.63
2023-07-12T22:43:52.142Z,4.55
2023-07-12T22:46:38.922Z,4.63
2023-07-12T22:49:25.350Z,4.13
2023-07-12T22:52:11.542Z,4.60
2023-07-12T22:54:57.529Z,5.07
2023-07-12T22:57:44.357Z,4.20
2023-07-12T23:00:30.724Z,4.45
2023-07-12T23:03:17.186Z,3.92
2023-07-12T23:06:04.205Z,4.78
2023-07-12T23:08:53.668Z,3.90
2023-07-12T23:11:39.917Z,4.40
2023-07-12T23:14:28.243Z,4.45
2023-07-12T23:17:14.555Z,4.03
2023-07-12T23:22:47.480Z,4.20
2023-07-12T23:25:34.193Z,4.20
2023-07-12T23:28:20.469Z,3.90
2023-07-12T23:31:08.304Z,3.45
2023-07-12T23:34:00.821Z,4.20
2023-07-12T23:36:47.246Z,3.70
2023-07-12T23:39:33.438Z,3.65
2023-07-12T23:42:19.949Z,4.00
2023-07-12T23:47:54.823Z,4.10
2023-07-12T23:50:41.705Z,3.65
2023-07-12T23:53:28.002Z,4.28
2023-07-12T23:56:14.866Z,3.97
2023-07-12T23:59:02.811Z,3.67
